Time;durP1;ratioP1;P1;durP2;ratioP2;P2;SDS_P1;SDS_P2;PMS_P1;PMS_P2;Temp;Humidity;BMP_temperature;BMP_pressure;BME280_temperature;BME280_humidity;BME280_pressure;Samples;Min_cycle;Max_cycle;Signal;HPM_P1;HPM_P2
2023/10/14 00:01:45;;;;;;;;;;;;;;;20.03;57.24;97406.95;608538;231;67255;-65
2023/10/14 00:04:13;;;;;;;;;;;;;;;20.02;58.26;97403.45;608917;232;65026;-65
2023/10/14 00:06:41;;;;;;;;;;;;;;;20.02;56.79;97402.66;608837;232;67340;-65
2023/10/14 00:09:12;;;;;;;;;;;;;;;20.02;57.36;97403.45;609149;232;67257;-65
2023/10/14 00:11:54;;;;;;;;;;;;;;;20.02;57.63;97403.45;608652;233;64800;-66
2023/10/14 00:14:18;;;;;;;;;;;;;;;20.03;57.86;97397.08;608579;233;64882;-64
2023/10/14 00:16:52;;;;;;;;;;;;;;;20.03;58.07;97399.75;609153;232;66904;-65
2023/10/14 00:19:20;;;;;;;;;;;;;;;20.02;58.76;97392.78;609157;233;63337;-66
2023/10/14 00:21:53;;;;;;;;;;;;;;;20.02;57.28;97384.78;608668;232;65026;-66
2023/10/14 00:24:27;;;;;;;;;;;;;;;20.01;57.64;97383.19;608931;232;64783;-65
2023/10/14 00:26:55;;;;;;;;;;;;;;;20.01;57.09;97372.52;608893;232;64685;-65
2023/10/14 00:29:24;;;;;;;;;;;;;;;20.01;57.34;97371.72;609448;231;63948;-64
2023/10/14 00:31:52;;;;;;;;;;;;;;;20.01;56.22;97372.52;609196;232;66895;-64
2023/10/14 00:34:25;;;;;;;;;;;;;;;20.02;58.14;97373.31;609085;232;62823;-65
2023/10/14 00:36:59;;;;;;;;;;;;;;;20.01;56.92;97367.18;609096;231;67243;-65
2023/10/14 00:39:27;;;;;;;;;;;;;;;20.01;57.46;97361.05;609023;232;64492;-65
2023/10/14 00:41:56;;;;;;;;;;;;;;;20.00;56.51;97365.58;609198;232;64799;-66
2023/10/14 00:44:24;;;;;;;;;;;;;;;20.02;57.60;97370.64;608508;233;67381;-65
2023/10/14 00:46:53;;;;;;;;;;;;;;;20.00;57.57;97354.91;609181;232;64788;-65
2023/10/14 00:49:22;;;;;;;;;;;;;;;20.01;56.70;97361.84;608938;232;62351;-65
2023/10/14 00:51:51;;;;;;;;;;;;;;;20.00;56.25;97360.24;609000;232;68062;-65
2023/10/14 00:55:24;;;;;;;;;;;;;;;20.01;58.05;97353.84;608989;232;67440;-65
2023/10/14 00:57:09;;;;;;;;;;;;;;;20.01;57.47;97348.50;604102;232;65289;-65
2023/10/14 00:59:28;;;;;;;;;;;;;;;20.01;57.09;97351.17;609069;231;64747;-65
2023/10/14 01:01:55;;;;;;;;;;;;;;;20.00;57.77;97343.41;609110;232;64016;-65
2023/10/14 01:04:32;;;;;;;;;;;;;;;20.00;56.77;97346.08;609168;232;64890;-65
2023/10/14 01:12:25;;;;;;;;;;;;;;;19.99;56.90;97345.28;609005;232;64961;-65
2023/10/14 01:14:58;;;;;;;;;;;;;;;19.99;56.29;97337.28;609001;233;67600;-64
2023/10/14 01:17:29;;;;;;;;;;;;;;;19.99;57.32;97333.81;608947;232;66974;-64
2023/10/14 01:20:17;;;;;;;;;;;;;;;19.99;57.68;97320.47;609056;232;62349;-64
2023/10/14 01:22:30;;;;;;;;;;;;;;;19.99;57.89;97326.61;609003;231;67336;-64
2023/10/14 01:24:57;;;;;;;;;;;;;;;19.98;56.67;97330.34;609054;232;67035;-64
2023/10/14 01:27:33;;;;;;;;;;;;;;;19.98;58.16;97316.21;608575;230;64803;-65
2023/10/14 01:29:56;;;;;;;;;;;;;;;19.96;57.50;97322.59;608776;232;64921;-66
2023/10/14 01:38:00;;;;;;;;;;;;;;;19.97;57.38;97312.74;609097;232;64734;-66
2023/10/14 01:40:44;;;;;;;;;;;;;;;19.97;58.11;97315.41;609034;232;66962;-66
2023/10/14 01:43:08;;;;;;;;;;;;;;;19.97;57.77;97310.08;609109;231;62433;-66
2023/10/14 01:45:40;;;;;;;;;;;;;;;19.97;57.97;97312.74;609127;232;67984;-66
2023/10/14 01:50:44;;;;;;;;;;;;;;;19.96;57.74;97313.78;604944;232;65386;-66
2023/10/14 01:53:12;;;;;;;;;;;;;;;19.97;58.23;97312.74;602959;232;64736;-66
2023/10/14 01:55:43;;;;;;;;;;;;;;;19.96;57.25;97308.45;602947;235;67149;-66
2023/10/14 01:58:22;;;;;;;;;;;;;;;19.96;56.82;97303.91;602929;235;62384;-66
2023/10/14 02:00:46;;;;;;;;;;;;;;;19.95;57.76;97310.32;602441;235;64675;-66
2023/10/14 02:03:10;;;;;;;;;;;;;;;19.96;57.97;97305.78;602739;235;66811;-66
2023/10/14 02:05:41;;;;;;;;;;;;;;;19.95;58.05;97298.85;602877;233;62354;-65
2023/10/14 02:08:21;;;;;;;;;;;;;;;19.95;57.45;97296.19;602962;235;67269;-65
2023/10/14 02:10:54;;;;;;;;;;;;;;;19.94;57.14;97298.05;602473;235;67465;-65
2023/10/14 02:13:19;;;;;;;;;;;;;;;19.95;56.88;97298.85;602758;231;62202;-65
2023/10/14 02:15:47;;;;;;;;;;;;;;;19.94;57.29;97298.05;602896;235;67198;-65
2023/10/14 02:18:20;;;;;;;;;;;;;;;19.94;56.62;97299.89;602903;235;67070;-65
2023/10/14 02:20:57;;;;;;;;;;;;;;;19.94;56.96;97302.56;602912;232;61327;-66
2023/10/14 02:23:26;;;;;;;;;;;;;;;19.94;57.43;97299.89;602922;235;67203;-66
2023/10/14 02:25:56;;;;;;;;;;;;;;;19.93;56.84;97295.63;602908;235;67221;-66
2023/10/14 02:28:35;;;;;;;;;;;;;;;19.93;56.94;97293.76;602936;235;65261;-65
2023/10/14 02:31:00;;;;;;;;;;;;;;;19.93;56.74;97292.97;602707;235;66871;-65
2023/10/14 02:33:28;;;;;;;;;;;;;;;19.93;56.49;97295.63;602908;235;66988;-65
2023/10/14 02:35:59;;;;;;;;;;;;;;;19.94;57.24;97297.23;602873;235;64580;-65
2023/10/14 02:38:25;;;;;;;;;;;;;;;19.93;56.82;97292.97;602899;235;67625;-65
2023/10/14 02:40:52;;;;;;;;;;;;;;;19.92;55.64;97292.16;602892;235;64774;-65
2023/10/14 02:43:21;;;;;;;;;;;;;;;19.92;54.82;97288.70;602948;235;65504;-65
2023/10/14 02:45:49;;;;;;;;;;;;;;;19.93;54.41;97296.42;602933;235;67021;-65
2023/10/14 02:48:19;;;;;;;;;;;;;;;19.94;54.58;97291.89;602902;232;67108;-66
2023/10/14 02:50:50;;;;;;;;;;;;;;;19.93;53.87;97288.42;610245;232;69519;-66
2023/10/14 02:53:21;;;;;;;;;;;;;;;19.93;54.63;97291.09;611254;230;66799;-66
2023/10/14 02:55:53;;;;;;;;;;;;;;;19.94;55.35;97286.55;611215;231;66805;-67
2023/10/14 02:58:21;;;;;;;;;;;;;;;19.93;55.46;97284.96;611246;232;64908;-66
2023/10/14 03:00:59;;;;;;;;;;;;;;;19.92;54.93;97278.03;611230;232;64424;-66
2023/10/14 03:03:21;;;;;;;;;;;;;;;19.91;55.64;97279.87;611226;230;64385;-66
2023/10/14 03:05:51;;;;;;;;;;;;;;;19.92;55.47;97283.36;611293;232;62429;-66
2023/10/14 03:08:21;;;;;;;;;;;;;;;19.91;54.64;97281.73;611267;232;64262;-66
2023/10/14 03:10:55;;;;;;;;;;;;;;;19.91;55.04;97281.73;611192;232;66788;-66
2023/10/14 03:13:23;;;;;;;;;;;;;;;19.91;55.12;97279.87;611255;232;64649;-67
2023/10/14 03:15:54;;;;;;;;;;;;;;;19.92;54.88;97283.36;611214;232;66841;-67
2023/10/14 03:18:30;;;;;;;;;;;;;;;19.90;54.37;97277.47;611236;232;66768;-67
2023/10/14 03:23:28;;;;;;;;;;;;;;;19.90;54.95;97270.27;611233;232;64722;-67
2023/10/14 03:26:11;;;;;;;;;;;;;;;19.90;54.49;97269.48;611176;232;67387;-64
2023/10/14 03:28:37;;;;;;;;;;;;;;;19.90;55.37;97269.48;611210;231;64762;-65
2023/10/14 03:31:07;;;;;;;;;;;;;;;19.90;55.40;97269.48;611233;232;66051;-65
2023/10/14 03:33:33;;;;;;;;;;;;;;;19.89;55.02;97260.67;611242;231;64732;-67
2023/10/14 03:36:05;;;;;;;;;;;;;;;19.90;55.08;97264.14;611273;230;63514;-66
2023/10/14 03:41:23;;;;;;;;;;;;;;;19.89;55.34;97263.34;611245;232;67032;-66
2023/10/14 03:46:29;;;;;;;;;;;;;;;19.90;56.46;97261.47;611247;232;66669;-66
2023/10/14 03:48:56;;;;;;;;;;;;;;;19.90;56.63;97264.14;610945;231;65637;-67
2023/10/14 03:51:27;;;;;;;;;;;;;;;19.89;56.87;97257.21;609177;232;64619;-68
2023/10/14 03:53:57;;;;;;;;;;;;;;;19.89;56.64;97257.21;608985;232;65923;-67
2023/10/14 03:56:26;;;;;;;;;;;;;;;19.88;55.40;97250.25;609017;232;66857;-67
2023/10/14 03:58:59;;;;;;;;;;;;;;;19.88;56.63;97256.38;609168;232;62464;-67
2023/10/14 04:02:03;;;;;;;;;;;;;;;19.88;55.96;97258.25;609134;233;64875;-67
2023/10/14 04:04:14;;;;;;;;;;;;;;;19.88;55.87;97255.58;606709;232;66979;-67
2023/10/14 04:06:35;;;;;;;;;;;;;;;19.88;56.07;97255.58;609230;232;64729;-67
2023/10/14 04:09:09;;;;;;;;;;;;;;;19.88;55.73;97250.25;609318;232;66692;-63
2023/10/14 04:11:35;;;;;;;;;;;;;;;19.88;55.92;97248.38;609014;232;66811;-64
2023/10/14 04:14:04;;;;;;;;;;;;;;;19.88;56.18;97250.25;608905;233;64643;-65
2023/10/14 04:16:48;;;;;;;;;;;;;;;19.87;55.87;97254.79;609003;232;66897;-64
2023/10/14 04:19:44;;;;;;;;;;;;;;;19.87;57.09;97248.66;609242;232;66843;-66
2023/10/14 04:22:03;;;;;;;;;;;;;;;19.88;56.72;97244.91;609134;232;64668;-67
2023/10/14 04:27:29;;;;;;;;;;;;;;;19.86;57.17;97233.70;609029;232;66845;-66
2023/10/14 04:29:57;;;;;;;;;;;;;;;19.86;56.41;97236.36;609097;232;64608;-66
2023/10/14 04:32:42;;;;;;;;;;;;;;;19.86;56.42;97234.52;608997;231;66939;-67
2023/10/14 04:34:54;;;;;;;;;;;;;;;19.85;56.41;97237.44;605011;229;63868;-67
2023/10/14 04:37:20;;;;;;;;;;;;;;;19.86;55.14;97239.03;604494;230;63271;-67
2023/10/14 04:39:58;;;;;;;;;;;;;;;19.86;55.49;97241.70;609098;232;66719;-67
2023/10/14 04:44:59;;;;;;;;;;;;;;;19.85;56.07;97240.10;608460;232;62146;-66
2023/10/14 04:47:38;;;;;;;;;;;;;;;19.85;56.27;97240.90;608901;232;70139;-67
2023/10/14 04:50:10;;;;;;;;;;;;;;;19.86;55.80;97236.36;606105;232;66740;-67
2023/10/14 04:52:36;;;;;;;;;;;;;;;19.85;55.02;97235.56;603124;233;64625;-67
2023/10/14 05:00:45;;;;;;;;;;;;;;;19.84;56.48;97249.97;602959;235;65495;-67
2023/10/14 05:03:20;;;;;;;;;;;;;;;19.84;56.41;97241.17;602952;235;66589;-67
2023/10/14 05:08:27;;;;;;;;;;;;;;;19.85;56.14;97250.77;594860;232;62468;-67
2023/10/14 05:10:56;;;;;;;;;;;;;;;19.83;55.61;97243.02;602986;235;67304;-68
2023/10/14 05:13:31;;;;;;;;;;;;;;;19.83;56.30;97237.68;602935;235;66953;-67
2023/10/14 05:15:53;;;;;;;;;;;;;;;19.84;55.81;97243.84;602600;235;64726;-68
2023/10/14 05:18:30;;;;;;;;;;;;;;;19.83;56.14;97232.34;602903;235;66993;-67
2023/10/14 05:21:43;;;;;;;;;;;;;;;19.83;57.25;97243.02;602944;235;64480;-67
2023/10/14 05:23:30;;;;;;;;;;;;;;;19.83;56.29;97237.68;598759;235;63623;-67
2023/10/14 05:25:59;;;;;;;;;;;;;;;19.83;56.97;97247.55;602994;232;64720;-67
2023/10/14 05:28:31;;;;;;;;;;;;;;;19.83;56.56;97248.34;602887;235;66896;-68
2023/10/14 05:31:05;;;;;;;;;;;;;;;19.83;56.32;97242.22;602916;235;62721;-67
2023/10/14 05:33:33;;;;;;;;;;;;;;;19.84;56.48;97254.51;602854;235;67183;-68
2023/10/14 05:36:09;;;;;;;;;;;;;;;19.83;56.09;97247.55;602923;235;66662;-67
2023/10/14 05:38:33;;;;;;;;;;;;;;;19.82;55.63;97256.63;602736;235;64686;-67
2023/10/14 05:41:06;;;;;;;;;;;;;;;19.84;56.83;97259.84;602957;235;64569;-67
2023/10/14 05:43:31;;;;;;;;;;;;;;;19.83;56.66;97260.88;602839;233;66868;-67
2023/10/14 05:45:59;;;;;;;;;;;;;;;19.83;57.05;97255.55;602942;235;64633;-67
2023/10/14 05:48:30;;;;;;;;;;;;;;;19.82;55.47;97267.28;602903;235;66831;-66
2023/10/14 05:51:02;;;;;;;;;;;;;;;19.83;56.23;97263.55;610987;232;66551;-66
2023/10/14 05:53:27;;;;;;;;;;;;;;;19.83;57.29;97268.88;611226;230;65506;-64
2023/10/14 05:55:58;;;;;;;;;;;;;;;19.82;56.34;97268.09;611170;232;66923;-64
2023/10/14 05:58:28;;;;;;;;;;;;;;;19.83;56.61;97268.88;611211;232;67124;-65
2023/10/14 06:00:56;;;;;;;;;;;;;;;19.82;56.80;97262.75;611211;232;64530;-66
2023/10/14 06:03:23;;;;;;;;;;;;;;;19.82;56.87;97264.63;611230;232;64552;-65
2023/10/14 06:05:51;;;;;;;;;;;;;;;19.82;56.22;97262.75;611298;232;64400;-65
2023/10/14 06:08:18;;;;;;;;;;;;;;;19.82;55.60;97261.95;611233;232;64826;-65
2023/10/14 06:10:46;;;;;;;;;;;;;;;19.82;56.96;97259.29;611185;232;68544;-65
2023/10/14 06:13:16;;;;;;;;;;;;;;;19.81;55.47;97257.69;611246;232;66658;-65
2023/10/14 06:15:44;;;;;;;;;;;;;;;19.82;55.49;97257.42;611221;232;63566;-65
2023/10/14 06:18:18;;;;;;;;;;;;;;;19.81;55.74;97250.49;611336;232;66537;-65
2023/10/14 06:20:42;;;;;;;;;;;;;;;19.82;56.23;97238.75;611093;231;64708;-65
2023/10/14 06:23:10;;;;;;;;;;;;;;;19.82;55.61;97248.63;611205;232;64809;-65
2023/10/14 06:25:38;;;;;;;;;;;;;;;19.82;55.19;97251.28;611269;232;64968;-65
2023/10/14 06:28:07;;;;;;;;;;;;;;;19.82;55.14;97241.41;611227;232;66847;-65
2023/10/14 06:30:35;;;;;;;;;;;;;;;19.81;55.12;97250.49;611264;232;62702;-65
2023/10/14 06:33:05;;;;;;;;;;;;;;;19.82;55.75;97251.28;611285;232;64204;-65
2023/10/14 06:35:34;;;;;;;;;;;;;;;19.83;56.38;97239.55;611194;232;66802;-66
2023/10/14 06:38:04;;;;;;;;;;;;;;;19.82;54.74;97240.63;611217;232;64534;-65
2023/10/14 06:40:42;;;;;;;;;;;;;;;19.82;54.47;97235.28;611271;232;66920;-66
2023/10/14 06:43:09;;;;;;;;;;;;;;;19.84;54.91;97230.50;611244;230;66786;-66
2023/10/14 06:45:37;;;;;;;;;;;;;;;19.83;54.85;97227.02;611300;232;62481;-66
2023/10/14 06:48:09;;;;;;;;;;;;;;;19.82;55.56;97229.95;611175;232;66938;-66
2023/10/14 06:50:37;;;;;;;;;;;;;;;19.83;55.07;97227.02;604995;230;66830;-66
2023/10/14 06:53:11;;;;;;;;;;;;;;;19.81;56.09;97218.48;602942;235;64581;-66
2023/10/14 06:55:43;;;;;;;;;;;;;;;19.84;56.49;97222.50;602959;235;65387;-65
2023/10/14 06:58:09;;;;;;;;;;;;;;;19.85;56.43;97216.09;602679;235;66836;-65
2023/10/14 07:00:41;;;;;;;;;;;;;;;19.84;56.50;97217.17;602934;232;64748;-65
2023/10/14 07:03:12;;;;;;;;;;;;;;;19.84;55.86;97215.30;602785;232;64357;-65
2023/10/14 07:05:48;;;;;;;;;;;;;;;19.85;55.57;97208.89;602942;235;66257;-65
2023/10/14 07:08:07;;;;;;;;;;;;;;;19.85;56.33;97214.23;602240;232;64973;-65
2023/10/14 07:10:35;;;;;;;;;;;;;;;19.86;56.80;97205.19;602948;235;66486;-65
2023/10/14 07:13:03;;;;;;;;;;;;;;;19.86;56.28;97202.52;602933;235;66734;-65
2023/10/14 07:15:32;;;;;;;;;;;;;;;19.87;56.74;97209.45;602956;235;64766;-65
2023/10/14 07:18:01;;;;;;;;;;;;;;;19.87;57.35;97212.11;602956;235;64497;-65
2023/10/14 07:20:32;;;;;;;;;;;;;;;19.88;56.96;97205.70;602950;235;66463;-66
2023/10/14 07:23:02;;;;;;;;;;;;;;;19.88;57.03;97203.04;602993;235;64670;-66
2023/10/14 07:25:34;;;;;;;;;;;;;;;19.88;56.82;97197.70;602959;235;66751;-66
2023/10/14 07:28:06;;;;;;;;;;;;;;;19.90;56.77;97194.80;602939;235;66874;-65
2023/10/14 07:30:31;;;;;;;;;;;;;;;19.91;56.65;97199.05;602830;235;65611;-65
2023/10/14 07:33:00;;;;;;;;;;;;;;;19.90;57.11;97192.92;602968;235;66497;-65
2023/10/14 07:35:27;;;;;;;;;;;;;;;19.91;56.88;97196.39;602922;235;67602;-65
2023/10/14 07:37:56;;;;;;;;;;;;;;;19.91;57.41;97188.38;602897;235;64601;-65
2023/10/14 07:40:24;;;;;;;;;;;;;;;19.91;57.71;97189.18;602990;235;64738;-65
2023/10/14 07:42:52;;;;;;;;;;;;;;;19.92;57.53;97184.67;602918;235;66675;-65
2023/10/14 07:45:21;;;;;;;;;;;;;;;19.92;57.58;97182.00;602945;235;64724;-65
2023/10/14 07:47:49;;;;;;;;;;;;;;;19.92;57.51;97180.14;602924;235;64187;-67
2023/10/14 07:50:17;;;;;;;;;;;;;;;19.93;57.68;97178.27;606779;233;64608;-67
2023/10/14 07:52:44;;;;;;;;;;;;;;;19.93;57.24;97173.73;608139;233;62412;-67
2023/10/14 07:55:15;;;;;;;;;;;;;;;19.93;58.11;97165.73;609081;232;64285;-67
2023/10/14 07:57:42;;;;;;;;;;;;;;;19.94;57.47;97169.19;609008;232;66730;-67
2023/10/14 08:00:13;;;;;;;;;;;;;;;19.94;57.75;97158.52;609151;233;64838;-67
2023/10/14 08:02:41;;;;;;;;;;;;;;;19.94;57.54;97159.34;608757;232;66784;-68
2023/10/14 08:05:09;;;;;;;;;;;;;;;19.94;57.06;97148.68;609127;232;64604;-68
2023/10/14 08:07:46;;;;;;;;;;;;;;;19.95;57.98;97149.47;608857;233;64995;-68
2023/10/14 08:10:19;;;;;;;;;;;;;;;19.96;57.25;97140.40;609020;232;65427;-67
2023/10/14 08:12:47;;;;;;;;;;;;;;;19.95;57.41;97138.80;608971;230;66878;-67
2023/10/14 08:15:17;;;;;;;;;;;;;;;19.96;57.22;97141.20;608854;232;62624;-66
2023/10/14 08:17:44;;;;;;;;;;;;;;;19.96;56.62;97141.20;608417;232;66912;-66
2023/10/14 08:20:18;;;;;;;;;;;;;;;19.98;57.68;97138.28;609030;233;66820;-66
2023/10/14 08:22:45;;;;;;;;;;;;;;;19.97;57.67;97134.02;609068;233;62683;-67
2023/10/14 08:25:13;;;;;;;;;;;;;;;19.97;57.71;97136.69;608512;233;67228;-67
2023/10/14 08:27:40;;;;;;;;;;;;;;;19.98;57.76;97134.81;608888;232;67218;-67
2023/10/14 08:30:11;;;;;;;;;;;;;;;19.97;57.95;97128.69;609217;232;64610;-67
2023/10/14 08:32:41;;;;;;;;;;;;;;;19.98;57.19;97122.28;608950;232;64879;-67
2023/10/14 08:35:15;;;;;;;;;;;;;;;19.98;57.55;97118.81;609187;231;64965;-67
2023/10/14 08:37:48;;;;;;;;;;;;;;;19.99;58.15;97115.87;609107;232;62507;-66
2023/10/14 08:40:16;;;;;;;;;;;;;;;19.98;58.12;97116.94;608886;232;68018;-67
2023/10/14 08:42:45;;;;;;;;;;;;;;;19.99;57.81;97107.06;609491;231;67327;-66
2023/10/14 08:45:13;;;;;;;;;;;;;;;19.99;57.85;97107.86;609147;232;64600;-66
2023/10/14 08:47:41;;;;;;;;;;;;;;;19.99;57.62;97101.73;609184;232;66858;-66
2023/10/14 08:50:09;;;;;;;;;;;;;;;20.00;58.20;97103.33;609193;232;66791;-66
2023/10/14 08:52:38;;;;;;;;;;;;;;;20.00;58.21;97098.81;608985;232;64764;-67
2023/10/14 08:55:11;;;;;;;;;;;;;;;20.00;57.68;97089.98;609199;232;67272;-66
2023/10/14 08:57:38;;;;;;;;;;;;;;;19.99;57.74;97086.52;609073;232;66906;-66
2023/10/14 09:00:06;;;;;;;;;;;;;;;20.00;57.71;97088.14;609153;233;64372;-67
2023/10/14 09:02:36;;;;;;;;;;;;;;;20.01;58.26;97078.27;609009;233;67197;-67
2023/10/14 09:05:11;;;;;;;;;;;;;;;20.00;58.40;97077.48;608931;232;66814;-68
2023/10/14 09:07:38;;;;;;;;;;;;;;;20.01;58.35;97076.40;608926;232;62720;-68
2023/10/14 09:10:06;;;;;;;;;;;;;;;20.01;57.98;97075.61;609195;232;66596;-67
2023/10/14 09:12:34;;;;;;;;;;;;;;;20.01;58.34;97079.07;608970;232;66972;-66
2023/10/14 09:15:01;;;;;;;;;;;;;;;20.01;58.08;97071.06;609116;232;65513;-65
2023/10/14 09:17:30;;;;;;;;;;;;;;;20.02;58.81;97069.98;608855;233;67073;-66
2023/10/14 09:19:58;;;;;;;;;;;;;;;20.02;58.47;97072.66;608882;232;66863;-66
2023/10/14 09:22:27;;;;;;;;;;;;;;;20.02;57.96;97063.86;609121;232;64591;-66
2023/10/14 09:25:03;;;;;;;;;;;;;;;20.02;57.62;97061.19;608812;232;67174;-66
2023/10/14 09:27:31;;;;;;;;;;;;;;;20.02;58.74;97051.31;608754;231;64938;-66
2023/10/14 09:29:57;;;;;;;;;;;;;;;20.03;58.71;97047.60;608854;232;64751;-66
2023/10/14 09:32:25;;;;;;;;;;;;;;;20.02;58.15;97048.64;609104;232;67061;-67
2023/10/14 09:34:52;;;;;;;;;;;;;;;20.03;58.62;97042.27;608897;232;66806;-67
2023/10/14 09:37:22;;;;;;;;;;;;;;;20.03;58.83;97034.27;609045;231;64773;-67
2023/10/14 09:39:51;;;;;;;;;;;;;;;20.04;58.68;97035.06;609044;232;64768;-66
2023/10/14 09:42:20;;;;;;;;;;;;;;;20.03;58.90;97033.47;609069;232;65026;-67
2023/10/14 09:44:48;;;;;;;;;;;;;;;20.04;58.63;97025.19;608882;232;62598;-67
2023/10/14 09:47:22;;;;;;;;;;;;;;;20.04;59.17;97022.52;609024;232;64794;-66
2023/10/14 09:49:50;;;;;;;;;;;;;;;20.04;59.08;97021.72;606349;232;67330;-66
2023/10/14 09:52:17;;;;;;;;;;;;;;;20.04;58.39;97011.05;604394;232;64746;-66
2023/10/14 09:54:49;;;;;;;;;;;;;;;20.05;58.38;97009.97;604132;233;67208;-66
2023/10/14 09:57:15;;;;;;;;;;;;;;;20.05;58.76;97004.64;603324;232;64935;-67
2023/10/14 09:59:44;;;;;;;;;;;;;;;20.05;58.71;97004.64;602920;235;64600;-67
2023/10/14 10:02:12;;;;;;;;;;;;;;;20.04;57.95;96990.50;602932;235;66816;-66
2023/10/14 10:04:42;;;;;;;;;;;;;;;20.05;57.77;96991.30;602947;235;65031;-66
2023/10/14 10:07:16;;;;;;;;;;;;;;;20.05;58.58;96981.45;602870;235;66739;-66
2023/10/14 10:09:57;;;;;;;;;;;;;;;20.05;58.82;96978.78;602964;233;67240;-66
2023/10/14 10:12:23;;;;;;;;;;;;;;;20.06;58.86;96979.58;602842;235;67017;-66
2023/10/14 10:14:52;;;;;;;;;;;;;;;20.05;58.69;96973.45;602930;235;62174;-66
2023/10/14 10:17:22;;;;;;;;;;;;;;;20.06;57.95;96967.04;603743;232;64959;-66
2023/10/14 10:19:52;;;;;;;;;;;;;;;20.06;58.03;96959.03;602909;235;67135;-66
2023/10/14 10:22:20;;;;;;;;;;;;;;;20.06;58.69;96961.70;603671;232;64773;-66
2023/10/14 10:24:48;;;;;;;;;;;;;;;20.06;58.86;96951.03;602887;235;67479;-66
2023/10/14 10:27:17;;;;;;;;;;;;;;;20.06;58.07;96948.36;602903;235;64709;-66
2023/10/14 10:29:51;;;;;;;;;;;;;;;20.07;57.92;96947.28;602911;235;64604;-66
2023/10/14 10:32:20;;;;;;;;;;;;;;;20.06;57.96;96937.70;602871;232;67322;-65
2023/10/14 10:35:10;;;;;;;;;;;;;;;20.07;58.64;96933.16;602909;235;66979;-65
2023/10/14 10:37:47;;;;;;;;;;;;;;;20.08;58.94;96932.91;602912;235;64583;-66
2023/10/14 10:40:16;;;;;;;;;;;;;;;20.06;59.22;96921.69;602965;235;67184;-68
2023/10/14 10:42:45;;;;;;;;;;;;;;;20.06;57.21;96921.69;602940;235;66874;-67
2023/10/14 10:45:20;;;;;;;;;;;;;;;20.07;56.66;96917.94;602912;232;64752;-67
2023/10/14 10:47:48;;;;;;;;;;;;;;;20.08;55.28;96910.73;602819;232;67052;-67
2023/10/14 10:50:15;;;;;;;;;;;;;;;20.08;54.59;96900.89;607056;232;64723;-66
2023/10/14 10:52:46;;;;;;;;;;;;;;;20.10;55.22;96890.73;609061;232;64616;-67
2023/10/14 10:55:14;;;;;;;;;;;;;;;20.10;56.59;96896.06;608993;232;64611;-68
2023/10/14 10:57:44;;;;;;;;;;;;;;;20.10;57.26;96896.06;609113;232;65367;-67
2023/10/14 11:00:17;;;;;;;;;;;;;;;20.10;57.64;96884.59;609152;232;64571;-66
2023/10/14 11:02:41;;;;;;;;;;;;;;;20.09;57.41;96886.47;608841;232;67353;-67
2023/10/14 11:05:09;;;;;;;;;;;;;;;20.10;57.81;96885.39;609186;231;64498;-66
2023/10/14 11:07:36;;;;;;;;;;;;;;;20.10;58.24;96885.39;609155;232;65399;-67
2023/10/14 11:10:04;;;;;;;;;;;;;;;20.10;58.46;96880.05;609108;232;67151;-66
2023/10/14 11:12:35;;;;;;;;;;;;;;;20.11;56.57;96870.20;608704;233;66924;-66
2023/10/14 11:15:03;;;;;;;;;;;;;;;20.10;56.99;96858.71;608854;232;62651;-66
2023/10/14 11:17:30;;;;;;;;;;;;;;;20.11;57.46;96864.88;609185;233;66565;-66
2023/10/14 11:19:58;;;;;;;;;;;;;;;20.11;57.47;96859.53;609182;232;66712;-67
2023/10/14 11:22:26;;;;;;;;;;;;;;;20.11;57.89;96857.66;608862;233;65472;-67
2023/10/14 11:24:55;;;;;;;;;;;;;;;20.11;57.36;96852.33;609113;232;64805;-66
2023/10/14 11:27:23;;;;;;;;;;;;;;;20.11;57.87;96846.99;609040;232;66670;-68
2023/10/14 11:29:51;;;;;;;;;;;;;;;20.11;57.71;96844.32;609148;232;64530;-68
2023/10/14 11:32:19;;;;;;;;;;;;;;;20.12;57.93;96845.12;608920;233;64217;-68
2023/10/14 11:34:52;;;;;;;;;;;;;;;20.12;56.21;96842.45;609089;232;64355;-67
2023/10/14 11:37:16;;;;;;;;;;;;;;;20.12;55.74;96835.23;608470;233;64648;-68
2023/10/14 11:39:44;;;;;;;;;;;;;;;20.13;56.71;96828.03;609073;233;67207;-67
2023/10/14 11:42:13;;;;;;;;;;;;;;;20.12;57.20;96835.23;609153;230;64899;-67
2023/10/14 11:44:41;;;;;;;;;;;;;;;20.14;57.41;96830.44;609118;232;64808;-67
2023/10/14 11:47:16;;;;;;;;;;;;;;;20.13;57.69;96820.85;608483;232;67032;-68
2023/10/14 11:49:37;;;;;;;;;;;;;;;20.13;58.05;96817.36;608939;231;67075;-67
2023/10/14 11:52:06;;;;;;;;;;;;;;;20.13;58.06;96806.69;609128;232;64738;-67
2023/10/14 11:54:33;;;;;;;;;;;;;;;20.13;57.78;96812.84;609032;232;65897;-67
2023/10/14 11:57:02;;;;;;;;;;;;;;;20.13;57.56;96812.84;609139;232;66893;-67
2023/10/14 11:59:29;;;;;;;;;;;;;;;20.13;57.16;96799.51;609051;232;64961;-67
2023/10/14 12:01:58;;;;;;;;;;;;;;;20.14;55.80;96797.63;609164;232;66900;-67
2023/10/14 12:04:28;;;;;;;;;;;;;;;20.13;54.57;96802.17;608996;232;64234;-68
2023/10/14 12:06:55;;;;;;;;;;;;;;;20.16;54.75;96800.80;609069;232;64654;-67
2023/10/14 12:09:23;;;;;;;;;;;;;;;20.15;54.85;96797.34;609114;232;67265;-67
2023/10/14 12:11:50;;;;;;;;;;;;;;;20.16;54.50;96796.30;609143;232;67065;-67
2023/10/14 12:14:18;;;;;;;;;;;;;;;20.16;54.43;96793.63;609265;232;64386;-66
2023/10/14 12:16:46;;;;;;;;;;;;;;;20.16;54.16;96782.95;609160;233;67170;-66
2023/10/14 12:19:14;;;;;;;;;;;;;;;20.17;53.98;96781.08;608963;232;64821;-65
2023/10/14 12:21:44;;;;;;;;;;;;;;;20.17;53.89;96787.21;609232;232;64812;-65
2023/10/14 12:24:12;;;;;;;;;;;;;;;20.18;54.00;96783.46;609025;232;64884;-66
2023/10/14 12:26:44;;;;;;;;;;;;;;;20.19;54.12;96781.61;608844;233;66994;-66
2023/10/14 12:29:09;;;;;;;;;;;;;;;20.18;54.14;96778.13;609173;232;64685;-66
2023/10/14 12:31:44;;;;;;;;;;;;;;;20.18;54.07;96770.13;608746;233;64617;-67
2023/10/14 12:34:09;;;;;;;;;;;;;;;20.19;53.97;96770.94;609034;232;65679;-68
2023/10/14 12:36:40;;;;;;;;;;;;;;;20.18;53.92;96759.45;609044;232;62457;-67
2023/10/14 12:39:33;;;;;;;;;;;;;;;20.20;53.91;96769.06;609237;231;65134;-67
2023/10/14 12:42:02;;;;;;;;;;;;;;;20.20;53.96;96763.73;608752;232;66947;-67
2023/10/14 12:44:28;;;;;;;;;;;;;;;20.20;53.96;96756.52;609076;232;65375;-65
2023/10/14 12:46:56;;;;;;;;;;;;;;;20.20;53.85;96751.19;609214;232;64846;-65
2023/10/14 12:49:24;;;;;;;;;;;;;;;20.20;53.87;96748.52;607466;232;66982;-65
2023/10/14 12:51:57;;;;;;;;;;;;;;;20.20;54.01;96747.72;603776;232;62445;-65
2023/10/14 12:54:20;;;;;;;;;;;;;;;20.20;53.90;96735.17;602790;235;65011;-65
2023/10/14 12:56:50;;;;;;;;;;;;;;;20.21;53.78;96735.97;602917;235;67064;-65
2023/10/14 12:59:18;;;;;;;;;;;;;;;20.21;53.77;96731.42;602907;235;64583;-65
2023/10/14 13:01:58;;;;;;;;;;;;;;;20.21;53.73;96728.75;602868;235;67313;-65
2023/10/14 13:04:19;;;;;;;;;;;;;;;20.22;53.81;96732.25;602623;235;67335;-65
2023/10/14 13:06:46;;;;;;;;;;;;;;;20.22;53.78;96725.04;602962;235;62355;-65
2023/10/14 13:09:14;;;;;;;;;;;;;;;20.22;53.84;96732.25;602875;235;67344;-65
2023/10/14 13:11:47;;;;;;;;;;;;;;;20.22;53.71;96726.91;602915;235;67076;-66
2023/10/14 13:14:25;;;;;;;;;;;;;;;20.23;53.57;96725.83;602729;235;62618;-66
2023/10/14 13:16:43;;;;;;;;;;;;;;;20.23;53.62;96725.83;602338;235;65044;-66
2023/10/14 13:19:10;;;;;;;;;;;;;;;20.22;53.64;96714.36;602984;235;66616;-66
2023/10/14 13:21:41;;;;;;;;;;;;;;;20.23;53.74;96715.16;602898;235;64506;-66
2023/10/14 13:24:11;;;;;;;;;;;;;;;20.22;53.69;96705.56;602915;235;48300;-66
2023/10/14 13:26:41;;;;;;;;;;;;;;;20.24;53.69;96712.20;602877;235;67212;-66
2023/10/14 13:29:09;;;;;;;;;;;;;;;20.24;53.73;96708.73;602905;235;64629;-66
2023/10/14 13:31:39;;;;;;;;;;;;;;;20.24;53.82;96706.07;602881;235;64843;-66
2023/10/14 13:34:08;;;;;;;;;;;;;;;20.25;53.95;96705.02;602948;235;64931;-66
2023/10/14 13:36:35;;;;;;;;;;;;;;;20.24;54.04;96704.20;602889;232;61902;-65